createdAt,value
2022-11-02T00:01:19.511Z,99723.09
2022-11-02T00:03:45.938Z,99730.34
2022-11-02T00:06:12.415Z,99727.97
2022-11-02T00:08:38.785Z,99726.53
2022-11-02T00:11:05.291Z,99726.69
2022-11-02T00:13:32.076Z,99734.75
2022-11-02T00:16:01.515Z,99727.84
2022-11-02T00:18:28.164Z,99723.50
2022-11-02T00:20:55.602Z,99731.69
2022-11-02T00:23:22.314Z,99737.34
2022-11-02T00:25:50.337Z,99743.84
2022-11-02T00:28:16.909Z,99744.88
2022-11-02T00:30:43.523Z,99733.34
2022-11-02T00:33:10.206Z,99745.94
2022-11-02T00:35:37.108Z,99746.84
2022-11-02T00:38:04.077Z,99746.91
2022-11-02T00:40:30.764Z,99747.06
2022-11-02T00:50:55.752Z,99745.66
2022-11-02T00:53:22.184Z,99751.00
2022-11-02T00:55:48.654Z,99744.81
2022-11-02T00:58:15.031Z,99747.59
2022-11-02T01:00:41.468Z,99752.06
2022-11-02T01:03:07.875Z,99748.59
2022-11-02T01:05:34.288Z,99745.94
2022-11-02T01:08:00.818Z,99744.13
2022-11-02T01:10:27.414Z,99744.13
2022-11-02T01:12:54.038Z,99741.41
2022-11-02T01:15:20.491Z,99737.81
2022-11-02T01:17:47.017Z,99742.19
2022-11-02T01:20:13.494Z,99735.91
2022-11-02T01:22:39.984Z,99736.69
2022-11-02T01:25:06.536Z,99741.78
2022-11-02T01:27:32.926Z,99740.63
2022-11-02T01:29:59.519Z,99742.16
2022-11-02T01:32:28.723Z,99744.66
2022-11-02T01:34:55.127Z,99733.97
2022-11-02T01:37:22.011Z,99731.28
2022-11-02T01:39:48.431Z,99727.72
2022-11-02T01:42:22.032Z,99731.13
2022-11-02T01:44:48.703Z,99726.44
2022-11-02T01:47:19.587Z,99727.31
2022-11-02T01:49:47.595Z,99728.13
2022-11-02T01:52:20.198Z,99716.50
2022-11-02T01:54:55.862Z,99717.25
2022-11-02T01:57:22.616Z,99725.22
2022-11-02T01:59:55.333Z,99730.28
2022-11-02T02:02:23.643Z,99731.97
2022-11-02T02:04:52.879Z,99733.38
2022-11-02T02:07:19.984Z,99731.50
2022-11-02T02:09:50.273Z,99732.47
2022-11-02T02:12:17.988Z,99733.13
2022-11-02T02:14:44.398Z,99727.00
2022-11-02T02:17:29.428Z,99722.69
2022-11-02T02:19:55.881Z,99723.94
2022-11-02T02:22:31.489Z,99727.53
2022-11-02T02:25:07.019Z,99722.25
2022-11-02T02:27:42.620Z,99724.19
2022-11-02T02:30:10.199Z,99730.50
2022-11-02T02:32:36.570Z,99727.97
2022-11-02T02:35:21.468Z,99729.78
2022-11-02T02:37:47.827Z,99734.38
2022-11-02T02:40:17.875Z,99730.06
2022-11-02T02:42:47.064Z,99735.50
2022-11-02T02:45:19.764Z,99731.25
2022-11-02T02:47:52.464Z,99731.28
2022-11-02T02:50:21.793Z,99729.59
2022-11-02T02:52:49.895Z,99727.94
2022-11-02T02:55:23.262Z,99721.91
2022-11-02T02:57:49.831Z,99730.91
2022-11-02T03:00:17.814Z,99730.09
2022-11-02T03:03:01.031Z,99729.34
2022-11-02T03:05:33.852Z,99737.47
2022-11-02T03:08:03.317Z,99729.56
2022-11-02T03:10:30.008Z,99733.22
2022-11-02T03:13:20.568Z,99728.84
2022-11-02T03:15:50.284Z,99730.66
2022-11-02T03:18:30.749Z,99736.13
2022-11-02T03:20:57.146Z,99728.19
2022-11-02T03:23:33.423Z,99719.41
2022-11-02T03:26:03.979Z,99719.47
2022-11-02T03:28:51.562Z,99727.44
2022-11-02T03:31:36.730Z,99731.94
2022-11-02T03:34:03.259Z,99730.97
2022-11-02T03:36:46.461Z,99735.41
2022-11-02T03:39:15.871Z,99733.59
2022-11-02T03:41:44.454Z,99730.13
2022-11-02T03:44:12.979Z,99732.84
2022-11-02T03:46:41.355Z,99735.50
2022-11-02T03:49:11.149Z,99736.41
2022-11-02T03:51:38.548Z,99739.09
2022-11-02T03:54:12.338Z,99743.47
2022-11-02T03:56:42.475Z,99740.75
2022-11-02T03:59:08.983Z,99739.84
2022-11-02T04:01:43.353Z,99726.56
2022-11-02T04:04:10.112Z,99734.50
2022-11-02T04:06:37.217Z,99741.63
2022-11-02T04:09:04.627Z,99747.88
2022-11-02T04:11:50.546Z,99743.47
2022-11-02T04:14:35.586Z,99740.78
2022-11-02T04:17:21.068Z,99732.84
2022-11-02T04:19:49.841Z,99728.41
2022-11-02T04:22:35.603Z,99727.44
2022-11-02T04:25:20.651Z,99731.69
2022-11-02T04:27:51.462Z,99736.31
2022-11-02T04:30:19.705Z,99730.06
2022-11-02T04:33:06.249Z,99736.44
2022-11-02T04:35:33.103Z,99738.84
2022-11-02T04:38:18.257Z,99736.50
2022-11-02T04:40:44.879Z,99732.50
2022-11-02T04:43:11.328Z,99725.94
2022-11-02T04:45:37.837Z,99728.13
2022-11-02T04:48:08.243Z,99726.41
2022-11-02T04:50:35.036Z,99724.66
2022-11-02T04:53:02.421Z,99717.53
2022-11-02T04:55:29.137Z,99726.66
2022-11-02T04:57:55.819Z,99725.00
2022-11-02T05:00:22.905Z,99731.19
2022-11-02T05:02:49.711Z,99734.94
2022-11-02T05:05:18.095Z,99722.69
2022-11-02T05:07:44.631Z,99723.72
2022-11-02T05:10:11.616Z,99718.44
2022-11-02T05:12:38.145Z,99720.31
2022-11-02T05:15:05.090Z,99717.63
2022-11-02T05:17:31.619Z,99720.31
2022-11-02T05:19:58.030Z,99725.69
2022-11-02T05:22:24.451Z,99720.53
2022-11-02T05:24:50.837Z,99724.91
2022-11-02T05:27:17.310Z,99722.25
2022-11-02T05:29:43.715Z,99725.88
2022-11-02T05:32:10.133Z,99726.81
2022-11-02T05:34:36.518Z,99727.78
2022-11-02T05:37:02.958Z,99729.66
2022-11-02T05:39:29.303Z,99743.94
2022-11-02T05:41:55.712Z,99739.47
2022-11-02T05:44:22.189Z,99741.34
2022-11-02T05:46:48.580Z,99736.13
2022-11-02T05:49:14.981Z,99739.69
2022-11-02T05:51:41.419Z,99740.66
2022-11-02T05:54:07.774Z,99736.31
2022-11-02T05:56:35.340Z,99745.31
2022-11-02T05:59:01.715Z,99742.66
2022-11-02T06:01:28.262Z,99734.81
2022-11-02T06:03:54.754Z,99738.44
2022-11-02T06:06:21.179Z,99735.81
2022-11-02T06:08:47.734Z,99730.47
2022-11-02T06:11:14.260Z,99744.78
2022-11-02T06:13:41.212Z,99742.16
2022-11-02T06:16:11.013Z,99747.44
2022-11-02T06:18:38.192Z,99749.88
2022-11-02T06:21:04.903Z,99749.06
2022-11-02T06:23:31.370Z,99747.09
2022-11-02T06:25:58.797Z,99750.72
2022-11-02T06:28:25.599Z,99755.19
2022-11-02T06:30:52.162Z,99754.97
2022-11-02T06:33:19.065Z,99759.28
2022-11-02T06:35:49.956Z,99761.84
2022-11-02T06:38:17.093Z,99755.34
2022-11-02T06:40:44.034Z,99753.22
2022-11-02T06:43:16.696Z,99767.00
2022-11-02T06:45:44.023Z,99766.63
2022-11-02T06:48:10.427Z,99767.25
2022-11-02T06:50:36.818Z,99761.63
2022-11-02T06:53:03.660Z,99752.38
2022-11-02T06:55:30.422Z,99754.59
2022-11-02T06:57:56.889Z,99759.59
2022-11-02T07:00:24.115Z,99751.19
2022-11-02T07:03:04.830Z,99756.28
2022-11-02T07:05:31.704Z,99760.41
2022-11-02T07:07:58.226Z,99763.88
2022-11-02T07:10:25.181Z,99766.22
2022-11-02T07:12:52.048Z,99766.16
2022-11-02T07:15:18.455Z,99769.75
2022-11-02T07:17:44.785Z,99776.00
2022-11-02T07:20:11.589Z,99766.84
2022-11-02T07:22:38.111Z,99776.59
2022-11-02T07:25:04.880Z,99773.81
2022-11-02T07:27:31.288Z,99779.94
2022-11-02T07:29:58.486Z,99779.72
2022-11-02T07:32:25.847Z,99779.38
2022-11-02T07:34:52.385Z,99775.06
2022-11-02T07:37:18.831Z,99764.16
2022-11-02T07:39:45.431Z,99778.25
2022-11-02T07:42:12.088Z,99773.56
2022-11-02T07:44:38.956Z,99777.06
2022-11-02T07:47:05.430Z,99775.00
2022-11-02T07:49:31.968Z,99770.19
2022-11-02T07:51:58.327Z,99765.19
2022-11-02T07:54:24.925Z,99760.28
2022-11-02T07:56:51.686Z,99757.53
2022-11-02T07:59:18.239Z,99759.94
2022-11-02T08:01:44.999Z,99756.03
2022-11-02T08:04:11.788Z,99749.38
2022-11-02T08:06:39.608Z,99751.81
2022-11-02T08:09:06.006Z,99762.16
2022-11-02T08:11:32.369Z,99765.09
2022-11-02T08:13:59.177Z,99769.75
2022-11-02T08:16:25.658Z,99766.56
2022-11-02T08:18:52.093Z,99779.59
2022-11-02T08:21:18.455Z,99774.53
2022-11-02T08:23:45.181Z,99784.91
2022-11-02T08:26:11.686Z,99780.97
2022-11-02T08:28:40.256Z,99781.69
2022-11-02T08:31:10.272Z,99784.09
2022-11-02T08:33:36.745Z,99782.94
2022-11-02T08:36:04.663Z,99786.75
2022-11-02T08:38:31.509Z,99782.56
2022-11-02T08:40:58.025Z,99785.63
2022-11-02T08:43:24.543Z,99784.75
2022-11-02T08:48:37.499Z,99786.72
2022-11-02T08:51:05.665Z,99791.28
2022-11-02T08:53:32.139Z,99791.72
2022-11-02T08:55:59.181Z,99796.13
2022-11-02T08:58:25.662Z,99793.63
2022-11-02T09:00:55.339Z,99790.97
2022-11-02T09:03:26.980Z,99800.78
2022-11-02T09:05:58.897Z,99800.41
2022-11-02T09:08:26.298Z,99798.03
2022-11-02T09:10:53.269Z,99799.16
2022-11-02T09:13:25.317Z,99805.84
2022-11-02T09:15:53.621Z,99807.59
2022-11-02T09:18:20.437Z,99810.28
2022-11-02T09:20:48.593Z,99812.84
2022-11-02T09:23:18.903Z,99806.31
2022-11-02T09:25:45.499Z,99810.25
2022-11-02T09:28:13.245Z,99819.47
2022-11-02T09:30:39.701Z,99816.28
2022-11-02T09:33:06.939Z,99805.63
2022-11-02T09:35:35.083Z,99808.34
2022-11-02T09:38:01.493Z,99816.91
2022-11-02T09:40:38.968Z,99813.41
2022-11-02T09:43:08.707Z,99827.59
2022-11-02T09:45:55.924Z,99825.81
2022-11-02T09:48:42.516Z,99835.91
2022-11-02T09:51:16.162Z,99840.38
2022-11-02T09:53:51.722Z,99849.09
2022-11-02T09:56:19.964Z,99832.22
2022-11-02T09:58:49.342Z,99835.16
2022-11-02T10:01:30.271Z,99834.13
2022-11-02T10:04:04.540Z,99837.44
2022-11-02T10:06:31.558Z,99842.13
2022-11-02T10:09:06.690Z,99849.41
2022-11-02T10:11:45.401Z,99849.56
2022-11-02T10:14:18.602Z,99867.13
2022-11-02T10:16:57.306Z,99841.50
2022-11-02T10:19:26.293Z,99832.97
2022-11-02T10:21:57.797Z,99827.50
2022-11-02T10:24:42.870Z,99829.00
2022-11-02T10:27:19.988Z,99833.50
2022-11-02T10:29:52.472Z,99829.78
2022-11-02T10:32:19.083Z,99825.28
2022-11-02T10:34:54.163Z,99822.72
2022-11-02T10:37:41.541Z,99822.91
2022-11-02T10:40:13.992Z,99824.56
2022-11-02T10:42:43.000Z,99825.69
2022-11-02T10:45:27.989Z,99832.81
2022-11-02T10:48:00.093Z,99826.69
2022-11-02T10:50:41.626Z,99824.72
2022-11-02T10:53:40.586Z,99820.03
2022-11-02T10:55:59.543Z,99812.63
2022-11-02T10:58:27.838Z,99816.13
2022-11-02T11:01:04.572Z,99824.44
2022-11-02T11:03:31.041Z,99819.34
2022-11-02T11:06:02.037Z,99820.41
2022-11-02T11:08:30.596Z,99814.16
2022-11-02T11:11:09.810Z,99815.38
2022-11-02T11:16:41.697Z,99815.22
2022-11-02T11:19:39.704Z,99827.16
2022-11-02T11:22:26.957Z,99828.47
2022-11-02T11:24:53.966Z,99826.47
2022-11-02T11:27:23.674Z,99823.94
2022-11-02T11:29:52.208Z,99830.13
2022-11-02T11:32:22.764Z,99836.50
2022-11-02T11:34:57.639Z,99836.16
2022-11-02T11:37:25.355Z,99837.81
2022-11-02T11:39:54.883Z,99827.69
2022-11-02T11:42:23.968Z,99831.81
2022-11-02T11:44:58.524Z,99834.84
2022-11-02T11:47:29.686Z,99828.75
2022-11-02T11:50:16.580Z,99827.88
2022-11-02T11:52:44.213Z,99828.88
2022-11-02T11:55:32.441Z,99819.47
2022-11-02T11:58:17.453Z,99822.31
2022-11-02T12:00:43.965Z,99814.19
2022-11-02T12:03:11.861Z,99816.59
2022-11-02T12:05:38.393Z,99817.66
2022-11-02T12:08:19.804Z,99819.88
2022-11-02T12:11:06.487Z,99834.50
2022-11-02T12:13:51.556Z,99830.88
2022-11-02T12:16:20.684Z,99838.44
2022-11-02T12:19:02.102Z,99832.94
2022-11-02T12:21:28.538Z,99818.34
2022-11-02T12:23:55.010Z,99821.59
2022-11-02T12:26:40.309Z,99821.00
2022-11-02T12:29:12.989Z,99819.13
2022-11-02T12:31:39.587Z,99818.41
2022-11-02T12:34:28.522Z,99821.50
2022-11-02T12:37:27.389Z,99823.06
2022-11-02T12:39:59.705Z,99829.28
2022-11-02T12:42:31.098Z,99819.03
2022-11-02T12:44:57.755Z,99820.50
2022-11-02T12:47:24.198Z,99822.88
2022-11-02T12:50:00.729Z,99827.91
2022-11-02T12:52:30.108Z,99820.03
2022-11-02T12:54:57.984Z,99818.81
2022-11-02T12:57:25.685Z,99824.41
2022-11-02T12:59:56.373Z,99831.56
2022-11-02T13:02:25.752Z,99830.25
2022-11-02T13:04:56.525Z,99828.03
2022-11-02T13:07:26.855Z,99831.25
2022-11-02T13:09:58.679Z,99828.47
2022-11-02T13:12:25.962Z,99827.34
2022-11-02T13:14:54.722Z,99817.56
2022-11-02T13:17:27.350Z,99812.75
2022-11-02T13:19:56.008Z,99819.13
2022-11-02T13:22:25.794Z,99818.16
2022-11-02T13:24:55.402Z,99815.19
2022-11-02T13:27:42.425Z,99821.22
2022-11-02T13:30:13.838Z,99826.03
2022-11-02T13:32:43.616Z,99819.66
2022-11-02T13:35:16.761Z,99824.16
2022-11-02T13:37:45.891Z,99834.72
2022-11-02T13:40:33.912Z,99826.16
2022-11-02T13:43:19.497Z,99831.22
2022-11-02T13:45:52.070Z,99828.25
2022-11-02T13:48:24.320Z,99826.50
2022-11-02T13:50:52.607Z,99827.72
2022-11-02T13:53:22.303Z,99829.59
2022-11-02T13:55:54.485Z,99834.19
2022-11-02T13:58:23.725Z,99838.16
2022-11-02T14:00:51.145Z,99834.84
2022-11-02T14:03:20.240Z,99838.59
2022-11-02T14:05:48.933Z,99839.56
2022-11-02T14:08:20.741Z,99845.13
2022-11-02T14:11:03.521Z,99839.59
2022-11-02T14:13:48.659Z,99853.88
2022-11-02T14:16:34.974Z,99845.25
2022-11-02T14:19:19.555Z,99838.09
2022-11-02T14:21:49.288Z,99834.91
2022-11-02T14:24:37.149Z,99834.06
2022-11-02T14:27:12.802Z,99834.91
2022-11-02T14:29:42.460Z,99837.63
2022-11-02T14:32:34.696Z,99837.88
2022-11-02T14:35:07.179Z,99832.53
2022-11-02T14:37:48.837Z,99834.28
2022-11-02T14:40:34.065Z,99828.50
2022-11-02T14:43:19.482Z,99824.06
2022-11-02T14:45:45.869Z,99810.13
2022-11-02T14:48:16.832Z,99816.47
2022-11-02T14:51:01.584Z,99825.44
2022-11-02T14:53:29.791Z,99814.94
2022-11-02T14:55:56.816Z,99828.84
2022-11-02T14:58:28.295Z,99834.50
2022-11-02T15:00:57.363Z,99838.94
2022-11-02T15:03:23.903Z,99827.66
2022-11-02T15:06:03.399Z,99839.75
2022-11-02T15:08:31.983Z,99844.38
2022-11-02T15:10:58.413Z,99845.66
2022-11-02T15:13:27.902Z,99856.75
2022-11-02T15:15:54.294Z,99848.97
2022-11-02T15:18:29.972Z,99837.53
2022-11-02T15:21:11.725Z,99840.63
2022-11-02T15:23:50.499Z,99838.44
2022-11-02T15:26:20.428Z,99842.53
2022-11-02T15:28:49.494Z,99840.94
2022-11-02T15:31:26.114Z,99850.34
2022-11-02T15:33:59.915Z,99848.81
2022-11-02T15:36:29.936Z,99850.94
2022-11-02T15:38:56.496Z,99849.56
2022-11-02T15:41:41.702Z,99855.31
2022-11-02T15:44:27.417Z,99857.47
2022-11-02T15:46:53.853Z,99874.94
2022-11-02T15:49:20.323Z,99870.03
2022-11-02T15:51:46.657Z,99879.22
2022-11-02T15:54:25.276Z,99877.69
2022-11-02T15:56:51.600Z,99885.84
2022-11-02T15:59:39.873Z,99884.44
2022-11-02T16:02:06.388Z,99888.00
2022-11-02T16:04:33.854Z,99892.84
2022-11-02T16:07:04.785Z,99891.59
2022-11-02T16:09:33.096Z,99898.00
2022-11-02T16:12:02.683Z,99897.94
2022-11-02T16:14:32.382Z,99899.13
2022-11-02T16:16:58.796Z,99906.31
2022-11-02T16:19:25.426Z,99902.97
2022-11-02T16:21:52.307Z,99905.84
2022-11-02T16:24:21.716Z,99905.47
2022-11-02T16:26:50.223Z,99923.16
2022-11-02T16:29:25.097Z,99912.19
2022-11-02T16:31:51.593Z,99923.63
2022-11-02T16:34:22.872Z,99925.88
2022-11-02T16:36:49.433Z,99930.00
2022-11-02T16:39:30.526Z,99923.31
2022-11-02T16:41:58.857Z,99926.56
2022-11-02T16:44:34.673Z,99928.72
2022-11-02T16:47:07.198Z,99924.56
2022-11-02T16:49:51.969Z,99928.44
2022-11-02T16:52:22.700Z,99940.38
2022-11-02T16:54:49.314Z,99936.13
2022-11-02T16:57:21.287Z,99942.69
2022-11-02T16:59:51.659Z,99936.75
2022-11-02T17:02:18.817Z,99944.28
2022-11-02T17:04:47.349Z,99952.59
2022-11-02T17:07:21.608Z,99951.06
2022-11-02T17:10:06.515Z,99954.91
2022-11-02T17:12:37.762Z,99957.84
2022-11-02T17:15:11.214Z,99950.13
2022-11-02T17:17:39.185Z,99949.44
2022-11-02T17:20:11.865Z,99960.41
2022-11-02T17:22:48.079Z,99949.81
2022-11-02T17:25:22.323Z,99963.34
2022-11-02T17:27:49.660Z,99961.75
2022-11-02T17:30:34.470Z,99960.06
2022-11-02T17:33:07.736Z,99957.53
2022-11-02T17:35:34.582Z,99951.47
2022-11-02T17:38:01.313Z,99953.41
2022-11-02T17:40:27.720Z,99952.69
2022-11-02T17:43:00.741Z,99943.97
2022-11-02T17:45:31.624Z,99953.03
2022-11-02T17:47:58.781Z,99950.34
2022-11-02T17:50:26.601Z,99953.09
2022-11-02T17:52:53.483Z,99949.38
2022-11-02T17:55:21.216Z,99948.38
2022-11-02T17:57:47.866Z,99945.75
2022-11-02T18:00:15.143Z,99944.03
2022-11-02T18:02:41.583Z,99949.81
2022-11-02T18:05:34.356Z,99941.56
2022-11-02T18:08:00.972Z,99940.53
2022-11-02T18:10:36.696Z,99947.88
2022-11-02T18:13:03.789Z,99954.22
2022-11-02T18:15:32.037Z,99952.81
2022-11-02T18:17:59.690Z,99948.41
2022-11-02T18:20:27.799Z,99944.06
2022-11-02T18:22:54.890Z,99947.84
2022-11-02T18:27:52.739Z,99948.38
2022-11-02T18:30:19.212Z,99949.47
2022-11-02T18:32:46.219Z,99953.28
2022-11-02T18:35:14.099Z,99957.03
2022-11-02T18:37:40.711Z,99954.50
2022-11-02T18:40:08.016Z,99957.28
2022-11-02T18:42:40.863Z,99946.91
2022-11-02T18:45:07.854Z,99948.06
2022-11-02T18:47:34.588Z,99951.81
2022-11-02T18:50:01.434Z,99951.84
2022-11-02T18:52:32.182Z,99952.50
2022-11-02T18:55:03.542Z,99959.72
2022-11-02T18:57:30.368Z,99960.63
2022-11-02T18:59:56.807Z,99947.47
2022-11-02T19:02:23.327Z,99950.22
2022-11-02T19:04:49.752Z,99946.72
2022-11-02T19:07:34.672Z,99956.53
2022-11-02T19:10:03.679Z,99945.94
2022-11-02T19:12:30.692Z,99951.38
2022-11-02T19:14:58.569Z,99946.94
2022-11-02T19:17:26.250Z,99942.56
2022-11-02T19:19:52.671Z,99954.09
2022-11-02T19:22:20.538Z,99937.97
2022-11-02T19:24:47.369Z,99946.94
2022-11-02T19:27:14.967Z,99946.09
2022-11-02T19:29:41.429Z,99953.25
2022-11-02T19:32:08.028Z,99953.25
2022-11-02T19:34:34.477Z,99950.66
2022-11-02T19:37:00.868Z,99960.50
2022-11-02T19:39:27.279Z,99955.19
2022-11-02T19:41:54.370Z,99949.91
2022-11-02T19:44:21.042Z,99952.66
2022-11-02T19:46:47.485Z,99954.53
2022-11-02T19:49:14.138Z,99951.91
2022-11-02T19:51:40.597Z,99952.84
2022-11-02T19:54:07.374Z,99949.31
2022-11-02T19:56:34.794Z,99944.03
2022-11-02T19:59:01.890Z,99952.94
2022-11-02T20:01:29.492Z,99953.00
2022-11-02T20:03:55.930Z,99952.25
2022-11-02T20:06:22.924Z,99963.00
2022-11-02T20:08:52.914Z,99966.66
2022-11-02T20:11:19.593Z,99957.88
2022-11-02T20:13:47.117Z,99961.47
2022-11-02T20:16:14.675Z,99954.47
2022-11-02T20:18:41.819Z,99960.81
2022-11-02T20:21:10.096Z,99968.88
2022-11-02T20:23:37.210Z,99965.41
2022-11-02T20:26:05.524Z,99971.72
2022-11-02T20:28:32.092Z,99966.47
2022-11-02T20:30:58.455Z,99964.75
2022-11-02T20:33:25.140Z,99961.06
2022-11-02T20:35:51.581Z,99970.03
2022-11-02T20:38:17.998Z,99970.97
2022-11-02T20:40:44.411Z,99975.50
2022-11-02T20:43:10.851Z,99971.09
2022-11-02T20:45:37.242Z,99975.63
2022-11-02T20:48:04.182Z,99977.41
2022-11-02T20:50:30.852Z,99988.13
2022-11-02T20:52:58.803Z,99990.78
2022-11-02T20:55:25.312Z,99984.63
2022-11-02T20:57:51.767Z,99987.28
2022-11-02T21:00:18.899Z,99988.25
2022-11-02T21:02:45.956Z,99987.38
2022-11-02T21:05:12.885Z,99993.56
2022-11-02T21:07:39.309Z,99985.63
2022-11-02T21:10:06.105Z,99989.16
2022-11-02T21:12:51.465Z,99984.75
2022-11-02T21:15:18.068Z,99993.63
2022-11-02T21:17:44.486Z,99987.41
2022-11-02T21:20:32.709Z,99996.38
2022-11-02T21:22:58.878Z,99999.06
2022-11-02T21:25:25.355Z,100000.03
2022-11-02T21:27:51.847Z,100001.88
2022-11-02T21:30:18.574Z,100006.41
2022-11-02T21:32:45.015Z,100002.03
2022-11-02T21:35:11.439Z,99994.06
2022-11-02T21:37:37.931Z,100008.41
2022-11-02T21:40:04.489Z,100011.09
2022-11-02T21:42:30.945Z,100008.47
2022-11-02T21:44:57.363Z,100012.06
2022-11-02T21:47:24.094Z,100012.13
2022-11-02T21:49:50.506Z,100010.44
2022-11-02T21:52:16.907Z,100016.69
2022-11-02T21:54:43.340Z,100014.16
2022-11-02T21:57:09.743Z,100021.38
2022-11-02T21:59:36.160Z,100015.34
2022-11-02T22:02:02.745Z,100006.66
2022-11-02T22:04:31.120Z,100005.91
2022-11-02T22:06:58.450Z,100016.72
2022-11-02T22:09:25.504Z,100007.97
2022-11-02T22:12:11.879Z,100004.47
2022-11-02T22:14:38.419Z,100006.28
2022-11-02T22:17:16.075Z,100005.47
2022-11-02T22:19:49.099Z,100004.56
2022-11-02T22:22:15.518Z,99994.84
2022-11-02T22:24:44.768Z,99994.94
2022-11-02T22:27:11.619Z,99988.00
2022-11-02T22:29:38.051Z,99990.78
2022-11-02T22:32:04.814Z,99992.59
2022-11-02T22:34:31.275Z,99994.41
2022-11-02T22:37:17.689Z,99989.97
2022-11-02T22:39:44.103Z,99991.75
2022-11-02T22:42:10.493Z,99986.50
2022-11-02T22:44:36.924Z,99986.53
2022-11-02T22:47:03.370Z,99990.09
2022-11-02T22:49:29.839Z,99993.66
2022-11-02T22:51:56.205Z,99992.81
2022-11-02T22:54:22.881Z,99985.75
2022-11-02T22:56:49.314Z,99975.13
2022-11-02T22:59:16.212Z,99993.75
2022-11-02T23:01:42.843Z,99987.53
2022-11-02T23:04:10.664Z,99986.66
2022-11-02T23:06:37.217Z,99992.88
2022-11-02T23:09:03.715Z,99992.06
2022-11-02T23:11:36.196Z,99993.00
2022-11-02T23:14:04.579Z,99994.78
2022-11-02T23:16:35.860Z,99990.38
2022-11-02T23:19:22.082Z,99991.28
2022-11-02T23:22:13.054Z,99993.06
2022-11-02T23:24:58.855Z,99989.53
2022-11-02T23:27:25.645Z,99993.97
2022-11-02T23:30:10.572Z,99996.63
2022-11-02T23:32:37.324Z,99996.63
2022-11-02T23:35:22.875Z,99994.88
2022-11-02T23:37:49.289Z,99995.75
2022-11-02T23:40:17.137Z,99994.03
2022-11-02T23:42:43.671Z,99993.16
2022-11-02T23:45:10.791Z,99991.41
2022-11-02T23:47:56.129Z,99990.53
2022-11-02T23:50:41.672Z,99987.94
2022-11-02T23:53:29.371Z,99982.69
2022-11-02T23:56:14.982Z,99977.41
2022-11-02T23:58:41.717Z,99977.41
